createdAt,value
2018-06-19T00:00:45.754Z,0.00
2018-06-19T00:01:45.752Z,0.00
2018-06-19T00:02:45.745Z,0.00
2018-06-19T00:03:45.743Z,0.00
2018-06-19T00:04:45.740Z,0.00
2018-06-19T00:05:45.739Z,0.00
2018-06-19T00:06:45.740Z,0.00
2018-06-19T00:07:45.737Z,0.00
2018-06-19T00:08:45.736Z,0.00
2018-06-19T00:09:45.734Z,0.00
2018-06-19T00:10:45.728Z,0.00
2018-06-19T00:11:45.726Z,0.00
2018-06-19T00:12:45.728Z,0.00
2018-06-19T00:13:45.726Z,0.00
2018-06-19T00:14:45.721Z,0.00
2018-06-19T00:15:45.717Z,0.00
2018-06-19T00:16:45.722Z,0.00
2018-06-19T00:17:45.712Z,0.00
2018-06-19T00:18:45.715Z,0.00
2018-06-19T00:19:45.711Z,0.00
2018-06-19T00:20:45.711Z,0.00
2018-06-19T00:21:45.707Z,0.00
2018-06-19T00:22:45.701Z,0.00
2018-06-19T00:23:45.699Z,0.00
2018-06-19T00:24:45.697Z,0.00
2018-06-19T00:25:45.701Z,0.00
2018-06-19T00:26:45.699Z,0.00
2018-06-19T00:27:45.696Z,0.00
2018-06-19T00:28:45.688Z,0.00
2018-06-19T00:29:45.686Z,0.00
2018-06-19T00:30:45.690Z,0.00
2018-06-19T00:31:45.690Z,0.00
2018-06-19T00:32:45.683Z,0.00
2018-06-19T00:33:45.683Z,0.00
2018-06-19T00:34:45.675Z,0.00
2018-06-19T00:35:45.671Z,0.00
2018-06-19T00:36:45.669Z,0.00
2018-06-19T00:37:45.669Z,0.00
2018-06-19T00:38:45.670Z,0.00
2018-06-19T00:39:45.667Z,0.00
2018-06-19T00:40:45.666Z,0.00
2018-06-19T00:41:45.664Z,0.00
2018-06-19T00:42:45.657Z,0.00
2018-06-19T00:43:45.655Z,0.00
2018-06-19T00:44:45.656Z,0.00
2018-06-19T00:45:45.656Z,0.00
2018-06-19T00:46:45.651Z,0.00
2018-06-19T00:47:45.644Z,0.00
2018-06-19T00:48:45.643Z,0.00
2018-06-19T00:49:45.642Z,0.00
2018-06-19T00:50:45.647Z,0.00
2018-06-19T00:51:45.639Z,0.00
2018-06-19T00:52:45.639Z,0.00
2018-06-19T00:53:45.637Z,0.00
2018-06-19T00:54:45.629Z,0.00
2018-06-19T00:55:45.626Z,0.00
2018-06-19T00:56:45.637Z,0.00
2018-06-19T00:57:45.622Z,0.00
2018-06-19T00:58:45.628Z,0.00
2018-06-19T00:59:45.660Z,0.00
2018-06-19T01:00:45.615Z,0.00
2018-06-19T01:01:45.612Z,0.00
2018-06-19T01:02:45.616Z,0.00
2018-06-19T01:03:45.612Z,0.00
2018-06-19T01:04:45.610Z,0.00
2018-06-19T01:05:45.608Z,0.00
2018-06-19T01:06:45.607Z,0.00
2018-06-19T01:07:45.598Z,0.00
2018-06-19T01:08:45.599Z,0.00
2018-06-19T01:09:45.593Z,0.00
2018-06-19T01:10:45.596Z,0.00
2018-06-19T01:11:45.598Z,0.00
2018-06-19T01:12:45.592Z,0.00
2018-06-19T01:13:45.590Z,0.00
2018-06-19T01:14:45.582Z,0.00
2018-06-19T01:15:45.581Z,0.00
2018-06-19T01:16:45.582Z,0.00
2018-06-19T01:17:45.580Z,0.00
2018-06-19T01:18:45.572Z,0.00
2018-06-19T01:19:45.571Z,0.00
2018-06-19T01:20:45.568Z,0.00
2018-06-19T01:21:45.566Z,0.00
2018-06-19T01:22:45.568Z,0.00
2018-06-19T01:23:45.564Z,0.00
2018-06-19T01:24:45.562Z,0.00
2018-06-19T01:25:45.560Z,0.00
2018-06-19T01:26:45.555Z,0.00
2018-06-19T01:27:45.551Z,0.00
2018-06-19T01:28:45.550Z,0.00
2018-06-19T01:29:45.546Z,0.00
2018-06-19T01:30:45.548Z,0.00
2018-06-19T01:31:45.549Z,0.00
2018-06-19T01:32:45.538Z,0.00
2018-06-19T01:33:45.535Z,0.00
2018-06-19T01:34:45.539Z,0.00
2018-06-19T01:35:45.535Z,0.00
2018-06-19T01:36:45.531Z,0.00
2018-06-19T01:37:45.530Z,0.00
2018-06-19T01:38:45.523Z,0.00
2018-06-19T01:39:45.524Z,0.00
2018-06-19T01:40:45.522Z,0.00
2018-06-19T01:41:45.517Z,0.00
2018-06-19T01:42:45.521Z,0.00
2018-06-19T01:43:45.516Z,0.00
2018-06-19T01:44:45.513Z,0.00
2018-06-19T01:45:45.510Z,0.00
2018-06-19T01:46:45.503Z,0.00
2018-06-19T01:47:45.499Z,0.00
2018-06-19T01:48:45.506Z,0.00
2018-06-19T01:49:45.499Z,0.00
2018-06-19T01:50:45.496Z,0.00
2018-06-19T01:51:45.489Z,0.00
2018-06-19T01:52:45.487Z,0.00
2018-06-19T01:53:45.486Z,0.00
2018-06-19T01:54:45.486Z,0.00
2018-06-19T01:55:45.486Z,0.00
2018-06-19T01:56:45.485Z,0.00
2018-06-19T01:57:45.480Z,0.00
2018-06-19T01:58:45.472Z,0.00
2018-06-19T01:59:45.468Z,0.00
2018-06-19T02:00:45.467Z,0.00
2018-06-19T02:01:45.464Z,0.00
2018-06-19T02:02:45.466Z,0.00
2018-06-19T02:03:45.465Z,0.00
2018-06-19T02:04:45.456Z,0.00
2018-06-19T02:05:45.456Z,0.00
2018-06-19T02:06:45.456Z,0.00
2018-06-19T02:07:45.453Z,0.00
2018-06-19T02:08:45.451Z,0.00
2018-06-19T02:09:45.448Z,0.00
2018-06-19T02:10:45.441Z,0.00
2018-06-19T02:11:45.442Z,0.00
2018-06-19T02:12:45.435Z,0.00
2018-06-19T02:13:45.433Z,0.00
2018-06-19T02:14:45.436Z,0.00
2018-06-19T02:15:45.432Z,0.00
2018-06-19T02:16:45.429Z,0.00
2018-06-19T02:17:45.426Z,0.00
2018-06-19T02:18:45.419Z,0.00
2018-06-19T02:19:45.416Z,0.00
2018-06-19T02:20:45.419Z,0.00
2018-06-19T02:21:45.415Z,0.00
2018-06-19T02:22:45.409Z,0.00
2018-06-19T02:23:45.405Z,0.00
2018-06-19T02:24:45.403Z,0.00
2018-06-19T02:25:45.402Z,0.00
2018-06-19T02:26:45.403Z,0.00
2018-06-19T02:27:45.400Z,0.00
2018-06-19T02:28:45.398Z,0.00
2018-06-19T02:29:45.396Z,0.00
2018-06-19T02:30:45.389Z,0.00
2018-06-19T02:31:45.386Z,0.00
2018-06-19T02:32:45.385Z,0.00
2018-06-19T02:33:45.380Z,0.00
2018-06-19T02:34:45.384Z,4.00
2018-06-19T02:35:45.385Z,4.00
2018-06-19T02:36:45.375Z,4.00
2018-06-19T02:37:45.377Z,0.00
2018-06-19T02:38:45.374Z,0.00
2018-06-19T02:39:45.371Z,4.00
2018-06-19T02:40:45.370Z,4.00
2018-06-19T02:41:45.368Z,4.00
2018-06-19T02:42:45.367Z,4.00
2018-06-19T02:43:45.357Z,4.00
2018-06-19T02:44:45.355Z,4.00
2018-06-19T02:45:45.353Z,4.00
2018-06-19T02:46:45.360Z,8.00
2018-06-19T02:47:45.356Z,4.00
2018-06-19T02:48:45.351Z,8.00
2018-06-19T02:49:45.349Z,12.00
2018-06-19T02:50:45.414Z,8.00
2018-06-19T02:51:45.338Z,12.00
2018-06-19T02:52:45.342Z,12.00
2018-06-19T02:53:45.340Z,12.00
2018-06-19T02:54:45.332Z,16.00
2018-06-19T02:55:45.329Z,16.00
2018-06-19T02:56:45.328Z,20.00
2018-06-19T02:57:45.329Z,24.00
2018-06-19T02:58:45.327Z,24.00
2018-06-19T02:59:45.324Z,28.00
2018-06-19T03:00:45.322Z,32.00
2018-06-19T03:01:45.320Z,36.00
2018-06-19T03:02:45.314Z,40.00
2018-06-19T03:03:45.313Z,44.00
2018-06-19T03:04:45.313Z,48.00
2018-06-19T03:05:45.309Z,52.00
2018-06-19T03:06:45.312Z,56.00
2018-06-19T03:07:45.306Z,64.00
2018-06-19T03:08:45.299Z,72.00
2018-06-19T03:09:45.298Z,80.00
2018-06-19T03:10:45.301Z,84.00
2018-06-19T03:11:45.296Z,92.00
2018-06-19T03:12:45.294Z,100.00
2018-06-19T03:13:45.292Z,108.00
2018-06-19T03:14:45.286Z,116.00
2018-06-19T03:15:45.283Z,120.00
2018-06-19T03:16:45.281Z,120.00
2018-06-19T03:17:45.279Z,120.00
2018-06-19T03:18:45.281Z,128.00
2018-06-19T03:19:45.279Z,132.00
2018-06-19T03:20:45.277Z,140.00
2018-06-19T03:21:45.275Z,148.00
2018-06-19T03:22:45.267Z,164.00
2018-06-19T03:23:45.264Z,176.00
2018-06-19T03:24:45.268Z,192.00
2018-06-19T03:25:45.265Z,204.00
2018-06-19T03:26:45.259Z,212.00
2018-06-19T03:27:45.256Z,216.00
2018-06-19T03:28:45.252Z,224.00
2018-06-19T03:29:45.251Z,236.00
2018-06-19T03:30:45.253Z,252.00
2018-06-19T03:31:45.251Z,260.00
2018-06-19T03:32:45.249Z,272.00
2018-06-19T03:33:45.249Z,280.00
2018-06-19T03:34:45.240Z,288.00
2018-06-19T03:35:45.237Z,296.00
2018-06-19T03:36:45.234Z,308.00
2018-06-19T03:37:45.233Z,324.00
2018-06-19T03:38:45.236Z,332.00
2018-06-19T03:39:45.233Z,328.00
2018-06-19T03:40:45.226Z,320.00
2018-06-19T03:41:45.229Z,316.00
2018-06-19T03:42:45.225Z,320.00
2018-06-19T03:43:45.225Z,324.00
2018-06-19T03:44:45.220Z,324.00
2018-06-19T03:45:45.218Z,356.00
2018-06-19T03:46:45.212Z,400.00
2018-06-19T03:47:45.208Z,420.00
2018-06-19T03:48:45.207Z,448.00
2018-06-19T03:49:45.205Z,464.00
2018-06-19T03:50:45.207Z,480.00
2018-06-19T03:51:45.205Z,492.00
2018-06-19T03:52:45.202Z,532.00
2018-06-19T03:53:45.200Z,556.00
2018-06-19T03:54:45.194Z,588.00
2018-06-19T03:55:45.193Z,608.00
2018-06-19T03:56:45.193Z,608.00
2018-06-19T03:57:45.194Z,636.00
2018-06-19T03:58:45.185Z,628.00
2018-06-19T03:59:45.182Z,652.00
2018-06-19T04:00:45.181Z,720.00
2018-06-19T04:01:45.179Z,716.00
2018-06-19T04:02:45.181Z,752.00
2018-06-19T04:03:45.178Z,736.00
2018-06-19T04:04:45.176Z,768.00
2018-06-19T04:05:45.174Z,852.00
2018-06-19T04:06:45.167Z,924.00
2018-06-19T04:07:45.167Z,988.00
2018-06-19T04:08:45.162Z,960.00
2018-06-19T04:09:45.160Z,888.00
2018-06-19T04:10:45.163Z,828.00
2018-06-19T04:11:45.160Z,812.00
2018-06-19T04:12:45.153Z,800.00
2018-06-19T04:13:45.153Z,780.00
2018-06-19T04:14:45.158Z,720.00
2018-06-19T04:15:45.151Z,720.00
2018-06-19T04:16:45.150Z,736.00
2018-06-19T04:17:45.150Z,768.00
2018-06-19T04:18:45.141Z,812.00
2018-06-19T04:19:45.139Z,860.00
2018-06-19T04:20:45.136Z,860.00
2018-06-19T04:21:45.135Z,900.00
2018-06-19T04:22:45.138Z,884.00
2018-06-19T04:23:45.136Z,892.00
2018-06-19T04:24:45.132Z,1000.00
2018-06-19T04:25:45.131Z,976.00
2018-06-19T04:26:45.125Z,1008.00
2018-06-19T04:27:45.122Z,1080.00
2018-06-19T04:28:45.124Z,920.00
2018-06-19T04:29:45.122Z,1056.00
2018-06-19T04:30:45.116Z,1088.00
2018-06-19T04:31:45.115Z,1104.00
2018-06-19T04:32:45.112Z,1172.00
2018-06-19T04:33:45.111Z,1172.00
2018-06-19T04:34:45.114Z,1160.00
2018-06-19T04:35:45.111Z,1200.00
2018-06-19T04:36:45.115Z,1272.00
2018-06-19T04:37:45.107Z,1304.00
2018-06-19T04:38:45.101Z,1336.00
2018-06-19T04:39:45.098Z,1348.00
2018-06-19T04:40:45.096Z,1344.00
2018-06-19T04:41:45.095Z,1280.00
2018-06-19T04:42:45.097Z,1288.00
2018-06-19T04:43:45.094Z,1352.00
2018-06-19T04:44:45.088Z,1304.00
2018-06-19T04:45:45.086Z,1332.00
2018-06-19T04:46:45.090Z,1248.00
2018-06-19T04:47:45.086Z,1208.00
2018-06-19T04:48:45.086Z,1252.00
2018-06-19T04:49:45.111Z,1216.00
2018-06-19T04:50:45.077Z,1092.00
2018-06-19T04:51:45.087Z,1004.00
2018-06-19T04:52:45.073Z,1116.00
2018-06-19T04:53:45.107Z,1180.00
2018-06-19T04:54:45.074Z,1216.00
2018-06-19T04:55:45.071Z,1224.00
2018-06-19T04:56:45.073Z,1248.00
2018-06-19T04:57:45.069Z,1224.00
2018-06-19T04:58:45.062Z,1316.00
2018-06-19T04:59:45.059Z,1284.00
2018-06-19T05:00:45.068Z,1300.00
2018-06-19T05:01:45.063Z,1384.00
2018-06-19T05:02:45.054Z,1416.00
2018-06-19T05:03:45.088Z,1476.00
2018-06-19T05:04:45.052Z,1520.00
2018-06-19T05:05:45.055Z,1624.00
2018-06-19T05:06:45.052Z,1632.00
2018-06-19T05:07:45.048Z,1484.00
2018-06-19T05:08:45.047Z,1400.00
2018-06-19T05:09:45.045Z,1336.00
2018-06-19T05:10:45.040Z,1312.00
2018-06-19T05:11:45.040Z,1516.00
2018-06-19T05:12:45.043Z,1748.00
2018-06-19T05:13:45.034Z,1852.00
2018-06-19T05:14:45.038Z,1816.00
2018-06-19T05:15:45.035Z,1828.00
2018-06-19T05:16:45.032Z,1616.00
2018-06-19T05:17:45.027Z,1744.00
2018-06-19T05:18:45.032Z,1716.00
2018-06-19T05:19:45.028Z,1676.00
2018-06-19T05:20:45.031Z,1640.00
2018-06-19T05:21:45.023Z,1636.00
2018-06-19T05:22:45.020Z,1576.00
2018-06-19T05:23:45.016Z,1544.00
2018-06-19T05:24:45.013Z,1632.00
2018-06-19T05:25:45.011Z,1588.00
2018-06-19T05:26:45.015Z,1436.00
2018-06-19T05:27:45.013Z,1284.00
2018-06-19T05:28:45.012Z,1376.00
2018-06-19T05:29:45.009Z,1544.00
2018-06-19T05:30:45.002Z,1748.00
2018-06-19T05:31:45.001Z,1760.00
2018-06-19T05:32:45.003Z,1924.00
2018-06-19T05:33:45.001Z,1976.00
2018-06-19T05:34:44.995Z,1996.00
2018-06-19T05:35:44.992Z,2260.00
2018-06-19T05:36:44.990Z,2240.00
2018-06-19T05:37:44.990Z,2272.00
2018-06-19T05:38:44.993Z,2384.00
2018-06-19T05:39:44.989Z,2328.00
2018-06-19T05:40:44.988Z,2592.00
2018-06-19T05:41:44.987Z,2560.00
2018-06-19T05:42:44.981Z,2536.00
2018-06-19T05:43:44.979Z,2928.00
2018-06-19T05:44:44.977Z,3148.00
2018-06-19T05:45:44.975Z,3376.00
2018-06-19T05:46:44.980Z,3232.00
2018-06-19T05:47:44.976Z,2920.00
2018-06-19T05:48:44.975Z,2852.00
2018-06-19T05:49:44.969Z,2632.00
2018-06-19T05:50:44.973Z,2580.00
2018-06-19T05:51:44.970Z,2840.00
2018-06-19T05:52:45.002Z,3048.00
2018-06-19T05:53:44.967Z,2976.00
2018-06-19T05:54:44.962Z,3320.00
2018-06-19T05:55:44.959Z,3332.00
2018-06-19T05:56:44.961Z,3160.00
2018-06-19T05:57:44.957Z,3224.00
2018-06-19T05:58:44.960Z,3280.00
2018-06-19T05:59:44.959Z,2824.00
2018-06-19T06:00:44.956Z,2880.00
2018-06-19T06:01:44.955Z,2840.00
2018-06-19T06:02:44.949Z,3172.00
2018-06-19T06:03:44.948Z,3076.00
2018-06-19T06:04:44.950Z,3072.00
2018-06-19T06:05:45.031Z,3160.00
2018-06-19T06:06:44.945Z,2952.00
2018-06-19T06:07:44.942Z,3044.00
2018-06-19T06:08:44.940Z,2976.00
2018-06-19T06:09:44.940Z,3052.00
2018-06-19T06:10:44.943Z,3108.00
2018-06-19T06:11:44.942Z,3420.00
2018-06-19T06:12:44.942Z,3856.00
2018-06-19T06:13:44.939Z,3856.00
2018-06-19T06:14:44.933Z,3576.00
2018-06-19T06:15:44.932Z,3176.00
2018-06-19T06:16:44.959Z,3260.00
2018-06-19T06:17:44.928Z,3536.00
2018-06-19T06:18:44.932Z,3584.00
2018-06-19T06:19:44.930Z,3656.00
2018-06-19T06:20:44.923Z,3424.00
2018-06-19T06:21:44.925Z,3412.00
2018-06-19T06:22:44.926Z,3496.00
2018-06-19T06:23:44.925Z,3368.00
2018-06-19T06:24:44.924Z,3196.00
2018-06-19T06:25:44.923Z,3256.00
2018-06-19T06:26:44.917Z,3520.00
2018-06-19T06:27:44.914Z,3288.00
2018-06-19T06:28:44.913Z,2980.00
2018-06-19T06:29:44.915Z,2992.00
2018-06-19T06:30:44.917Z,3032.00
2018-06-19T06:31:44.915Z,2828.00
2018-06-19T06:32:44.914Z,2888.00
2018-06-19T06:33:44.912Z,2672.00
2018-06-19T06:34:44.907Z,2520.00
2018-06-19T06:35:44.905Z,2676.00
2018-06-19T06:36:44.910Z,2444.00
2018-06-19T06:37:44.911Z,2256.00
2018-06-19T06:38:44.903Z,2232.00
2018-06-19T06:39:44.901Z,2184.00
2018-06-19T06:40:44.901Z,2168.00
2018-06-19T06:41:44.900Z,2184.00
2018-06-19T06:42:44.904Z,2284.00
2018-06-19T06:43:44.903Z,2232.00
2018-06-19T06:44:44.947Z,2184.00
2018-06-19T06:45:44.902Z,2436.00
2018-06-19T06:46:44.895Z,2588.00
2018-06-19T06:47:44.895Z,2960.00
2018-06-19T06:48:44.891Z,3360.00
2018-06-19T06:49:44.889Z,3348.00
2018-06-19T06:50:44.893Z,3312.00
2018-06-19T06:51:44.890Z,3420.00
2018-06-19T06:52:44.885Z,3320.00
2018-06-19T06:53:44.884Z,3612.00
2018-06-19T06:54:44.890Z,3412.00
2018-06-19T06:55:44.886Z,3276.00
2018-06-19T06:56:44.886Z,3100.00
2018-06-19T06:57:44.885Z,3096.00
2018-06-19T06:58:44.879Z,3104.00
2018-06-19T06:59:44.878Z,2964.00
2018-06-19T07:00:44.877Z,2688.00
2018-06-19T07:01:44.875Z,2528.00
2018-06-19T07:02:44.878Z,2504.00
2018-06-19T07:03:44.876Z,2688.00
2018-06-19T07:04:44.877Z,3020.00
2018-06-19T07:05:44.876Z,3200.00
2018-06-19T07:06:44.871Z,3212.00
2018-06-19T07:07:44.934Z,3380.00
2018-06-19T07:08:44.873Z,3844.00
2018-06-19T07:09:44.871Z,4232.00
2018-06-19T07:10:44.865Z,4400.00
2018-06-19T07:11:44.865Z,3788.00
2018-06-19T07:12:44.863Z,3320.00
2018-06-19T07:13:44.862Z,3236.00
2018-06-19T07:14:44.868Z,3524.00
2018-06-19T07:15:44.935Z,3680.00
2018-06-19T07:16:44.863Z,3964.00
2018-06-19T07:17:44.863Z,3964.00
2018-06-19T07:18:44.858Z,3840.00
2018-06-19T07:19:44.857Z,4296.00
2018-06-19T07:20:44.856Z,4008.00
2018-06-19T07:21:44.856Z,3540.00
2018-06-19T07:22:44.860Z,3208.00
2018-06-19T07:23:44.866Z,3208.00
2018-06-19T07:24:44.854Z,3260.00
2018-06-19T07:25:44.852Z,3164.00
2018-06-19T07:26:44.857Z,2964.00
2018-06-19T07:27:44.858Z,2924.00
2018-06-19T07:28:44.855Z,2880.00
2018-06-19T07:29:44.854Z,2976.00
2018-06-19T07:30:44.852Z,2980.00
2018-06-19T07:31:44.848Z,2884.00
2018-06-19T07:32:44.852Z,3028.00
2018-06-19T07:33:44.847Z,3068.00
2018-06-19T07:34:44.851Z,3188.00
2018-06-19T07:35:44.850Z,3080.00
2018-06-19T07:36:44.895Z,3160.00
2018-06-19T07:37:44.917Z,3172.00
2018-06-19T07:38:44.844Z,3252.00
2018-06-19T07:39:44.842Z,3104.00
2018-06-19T07:40:44.846Z,3056.00
2018-06-19T07:41:44.846Z,3280.00
2018-06-19T07:42:44.841Z,3268.00
2018-06-19T07:43:44.872Z,3272.00
2018-06-19T07:44:44.840Z,3228.00
2018-06-19T07:45:44.838Z,3340.00
2018-06-19T07:46:44.842Z,3388.00
2018-06-19T07:47:44.841Z,3244.00
2018-06-19T07:48:44.842Z,3176.00
2018-06-19T07:49:44.840Z,3276.00
2018-06-19T07:50:44.837Z,3156.00
2018-06-19T07:51:44.837Z,3000.00
2018-06-19T07:52:44.834Z,3152.00
2018-06-19T07:53:44.833Z,3488.00
2018-06-19T07:54:44.839Z,3284.00
2018-06-19T07:55:44.837Z,3184.00
2018-06-19T07:56:44.833Z,3408.00
2018-06-19T07:57:44.832Z,3440.00
2018-06-19T07:58:44.837Z,3440.00
2018-06-19T07:59:44.835Z,3184.00
2018-06-19T08:00:44.834Z,2988.00
2018-06-19T08:01:44.833Z,3492.00
2018-06-19T08:02:44.828Z,3640.00
2018-06-19T08:03:44.826Z,3768.00
2018-06-19T08:04:44.827Z,3668.00
2018-06-19T08:05:44.827Z,3424.00
2018-06-19T08:06:44.830Z,3572.00
2018-06-19T08:07:44.830Z,3144.00
2018-06-19T08:08:44.828Z,3452.00
2018-06-19T08:09:44.828Z,3448.00
2018-06-19T08:10:44.823Z,3500.00
2018-06-19T08:11:44.822Z,3904.00
2018-06-19T08:12:44.827Z,3872.00
2018-06-19T08:13:44.828Z,4068.00
2018-06-19T08:14:44.821Z,4328.00
2018-06-19T08:15:44.820Z,4984.00
2018-06-19T08:16:44.820Z,4648.00
2018-06-19T08:17:44.819Z,4704.00
2018-06-19T08:18:44.866Z,5052.00
2018-06-19T08:19:44.824Z,4756.00
2018-06-19T08:20:44.823Z,5324.00
2018-06-19T08:21:44.827Z,5300.00
2018-06-19T08:22:44.872Z,5396.00
2018-06-19T08:23:44.817Z,5172.00
2018-06-19T08:24:44.817Z,4636.00
2018-06-19T08:25:44.816Z,4928.00
2018-06-19T08:26:44.821Z,5380.00
2018-06-19T08:27:44.820Z,5360.00
2018-06-19T08:28:44.815Z,5308.00
2018-06-19T08:29:44.816Z,6060.00
2018-06-19T08:30:44.821Z,6760.00
2018-06-19T08:31:44.819Z,6576.00
2018-06-19T08:32:44.820Z,6264.00
2018-06-19T08:33:44.823Z,5848.00
2018-06-19T08:34:44.815Z,6364.00
2018-06-19T08:35:44.815Z,5612.00
2018-06-19T08:36:44.815Z,5136.00
2018-06-19T08:37:44.815Z,5028.00
2018-06-19T08:38:44.821Z,5256.00
2018-06-19T08:39:44.820Z,5072.00
2018-06-19T08:40:44.819Z,4600.00
2018-06-19T08:41:44.853Z,5512.00
2018-06-19T08:42:44.815Z,5844.00
2018-06-19T08:43:44.815Z,5264.00
2018-06-19T08:44:44.821Z,5776.00
2018-06-19T08:45:44.820Z,5404.00
2018-06-19T08:46:44.816Z,5588.00
2018-06-19T08:47:44.816Z,5800.00
2018-06-19T08:48:44.819Z,5536.00
2018-06-19T08:49:44.821Z,6528.00
2018-06-19T08:50:44.823Z,6676.00
2018-06-19T08:51:44.821Z,4636.00
2018-06-19T08:52:44.823Z,5104.00
2018-06-19T08:53:44.823Z,5964.00
2018-06-19T08:54:44.818Z,5432.00
2018-06-19T08:55:44.817Z,4688.00
2018-06-19T08:56:44.818Z,5588.00
2018-06-19T08:57:44.819Z,5636.00
2018-06-19T08:58:44.824Z,5976.00
2018-06-19T08:59:44.823Z,6068.00
2018-06-19T09:00:44.819Z,5484.00
2018-06-19T09:01:44.819Z,5504.00
2018-06-19T09:02:44.826Z,5736.00
2018-06-19T09:03:44.824Z,5452.00
2018-06-19T09:04:44.828Z,5608.00
2018-06-19T09:05:44.827Z,6368.00
2018-06-19T09:06:44.824Z,6288.00
2018-06-19T09:07:44.823Z,7024.00
2018-06-19T09:08:44.822Z,7004.00
2018-06-19T09:09:44.823Z,6508.00
2018-06-19T09:10:44.829Z,5700.00
2018-06-19T09:11:44.831Z,5372.00
2018-06-19T09:12:44.829Z,6112.00
2018-06-19T09:13:44.830Z,7040.00
2018-06-19T09:14:44.829Z,6584.00
2018-06-19T09:15:44.828Z,6340.00
2018-06-19T09:16:44.831Z,6828.00
2018-06-19T09:17:44.832Z,5996.00
2018-06-19T09:18:44.828Z,6344.00
2018-06-19T09:19:44.829Z,5852.00
2018-06-19T09:20:44.833Z,5548.00
2018-06-19T09:21:44.864Z,7276.00
2018-06-19T09:22:44.836Z,7476.00
2018-06-19T09:23:44.837Z,8076.00
2018-06-19T09:24:44.837Z,7556.00
2018-06-19T09:25:44.839Z,6152.00
2018-06-19T09:26:44.834Z,6636.00
2018-06-19T09:27:44.835Z,6520.00
2018-06-19T09:28:44.835Z,5672.00
2018-06-19T09:29:44.836Z,5976.00
2018-06-19T09:30:44.841Z,5960.00
2018-06-19T09:31:44.842Z,5976.00
2018-06-19T09:32:44.838Z,6036.00
2018-06-19T09:33:44.842Z,6080.00
2018-06-19T09:34:44.845Z,6216.00
2018-06-19T09:35:44.848Z,6672.00
2018-06-19T09:36:44.846Z,6764.00
2018-06-19T09:37:44.849Z,6812.00
2018-06-19T09:38:44.844Z,7048.00
2018-06-19T09:39:44.846Z,6600.00
2018-06-19T09:40:44.848Z,6176.00
2018-06-19T09:41:44.847Z,6292.00
2018-06-19T09:42:44.854Z,7176.00
2018-06-19T09:43:44.853Z,7580.00
2018-06-19T09:44:44.854Z,7508.00
2018-06-19T09:45:44.857Z,7112.00
2018-06-19T09:46:44.852Z,6880.00
2018-06-19T09:47:44.853Z,6976.00
2018-06-19T09:48:44.857Z,6980.00
2018-06-19T09:49:44.859Z,6920.00
2018-06-19T09:50:44.856Z,6856.00
2018-06-19T09:51:44.856Z,6300.00
2018-06-19T09:52:44.862Z,5936.00
2018-06-19T09:53:44.924Z,6300.00
2018-06-19T09:54:44.869Z,7208.00
2018-06-19T09:55:44.867Z,7692.00
2018-06-19T09:56:44.868Z,7332.00
2018-06-19T09:57:44.872Z,6956.00
2018-06-19T09:58:44.869Z,7052.00
2018-06-19T09:59:44.867Z,6544.00
2018-06-19T10:00:44.868Z,7072.00
2018-06-19T10:01:44.868Z,7032.00
2018-06-19T10:02:44.875Z,6832.00
2018-06-19T10:03:44.876Z,6860.00
2018-06-19T10:04:44.873Z,6692.00
2018-06-19T10:05:44.925Z,6040.00
2018-06-19T10:06:44.883Z,6596.00
2018-06-19T10:07:44.881Z,6244.00
2018-06-19T10:08:44.884Z,6048.00
2018-06-19T10:09:44.893Z,6904.00
2018-06-19T10:10:44.882Z,8312.00
2018-06-19T10:11:44.885Z,7620.00
2018-06-19T10:12:44.884Z,7060.00
2018-06-19T10:13:44.886Z,7668.00
2018-06-19T10:14:44.897Z,11512.00
2018-06-19T10:15:44.895Z,11044.00
2018-06-19T10:16:44.897Z,9800.00
2018-06-19T10:17:44.896Z,8244.00
2018-06-19T10:18:44.895Z,10892.00
2018-06-19T10:19:44.900Z,10584.00
2018-06-19T10:20:44.901Z,8988.00
2018-06-19T10:21:44.904Z,9856.00
2018-06-19T10:22:44.901Z,9228.00
2018-06-19T10:23:44.903Z,9476.00
2018-06-19T10:24:44.904Z,10344.00
2018-06-19T10:25:44.907Z,8520.00
2018-06-19T10:26:44.914Z,7420.00
2018-06-19T10:27:44.914Z,7324.00
2018-06-19T10:28:44.920Z,6592.00
2018-06-19T10:29:44.920Z,5916.00
2018-06-19T10:30:44.924Z,7460.00
2018-06-19T10:31:44.917Z,10104.00
2018-06-19T10:32:44.919Z,11380.00
2018-06-19T10:33:44.923Z,10796.00
2018-06-19T10:34:44.931Z,9072.00
2018-06-19T10:35:44.931Z,9832.00
2018-06-19T10:36:44.928Z,10088.00
2018-06-19T10:37:44.937Z,9376.00
2018-06-19T10:38:44.939Z,12004.00
2018-06-19T10:39:44.939Z,14224.00
2018-06-19T10:40:44.944Z,13992.00
2018-06-19T10:41:44.944Z,12440.00
2018-06-19T10:42:44.942Z,10212.00
2018-06-19T10:43:44.945Z,8920.00
2018-06-19T10:44:44.946Z,9276.00
2018-06-19T10:45:44.952Z,8984.00
2018-06-19T10:46:44.961Z,10280.00
2018-06-19T10:47:44.958Z,11624.00
2018-06-19T10:48:44.962Z,10460.00
2018-06-19T10:49:44.965Z,10684.00
2018-06-19T10:50:44.962Z,11032.00
2018-06-19T10:51:44.964Z,12016.00
2018-06-19T10:52:45.012Z,13400.00
2018-06-19T10:53:44.982Z,12716.00
2018-06-19T10:54:44.973Z,12048.00
2018-06-19T10:55:44.974Z,11912.00
2018-06-19T10:56:44.978Z,11828.00
2018-06-19T10:57:44.981Z,10236.00
2018-06-19T10:58:44.988Z,8836.00
2018-06-19T10:59:44.991Z,10708.00
2018-06-19T11:00:44.993Z,11748.00
2018-06-19T11:01:44.996Z,11244.00
2018-06-19T11:02:44.995Z,11364.00
2018-06-19T11:03:45.003Z,13404.00
2018-06-19T11:04:45.002Z,15984.00
2018-06-19T11:05:45.006Z,16704.00
2018-06-19T11:06:45.014Z,16960.00
2018-06-19T11:07:45.016Z,17728.00
2018-06-19T11:08:45.014Z,16960.00
2018-06-19T11:09:45.018Z,18880.00
2018-06-19T11:10:45.026Z,18336.00
2018-06-19T11:11:45.031Z,16704.00
2018-06-19T11:12:45.031Z,14812.00
2018-06-19T11:13:45.037Z,13888.00
2018-06-19T11:14:45.036Z,14768.00
2018-06-19T11:15:45.038Z,14868.00
2018-06-19T11:16:45.043Z,13600.00
2018-06-19T11:17:45.046Z,12708.00
2018-06-19T11:18:45.055Z,14280.00
2018-06-19T11:19:45.057Z,15196.00
2018-06-19T11:20:45.061Z,15508.00
2018-06-19T11:21:45.065Z,15460.00
2018-06-19T11:22:45.065Z,14236.00
2018-06-19T11:23:45.071Z,13976.00
2018-06-19T11:24:45.078Z,12868.00
2018-06-19T11:25:45.206Z,11888.00
2018-06-19T11:26:45.081Z,12112.00
2018-06-19T11:27:45.084Z,12364.00
2018-06-19T11:28:45.090Z,12968.00
2018-06-19T11:29:45.094Z,13528.00
2018-06-19T11:30:45.104Z,14344.00
2018-06-19T11:31:45.106Z,15004.00
2018-06-19T11:32:45.111Z,14808.00
2018-06-19T11:33:45.115Z,14628.00
2018-06-19T11:34:45.115Z,15200.00
2018-06-19T11:35:45.126Z,15100.00
2018-06-19T11:36:45.134Z,14216.00
2018-06-19T11:37:45.129Z,12116.00
2018-06-19T11:38:45.136Z,10168.00
2018-06-19T11:39:45.140Z,10828.00
2018-06-19T11:40:45.147Z,11320.00
2018-06-19T11:41:45.144Z,11300.00
2018-06-19T11:42:45.153Z,11176.00
2018-06-19T11:43:45.156Z,11376.00
2018-06-19T11:44:45.169Z,11508.00
2018-06-19T11:45:45.167Z,11548.00
2018-06-19T11:46:45.166Z,12212.00
2018-06-19T11:47:45.169Z,13660.00
2018-06-19T11:48:45.174Z,15324.00
2018-06-19T11:49:45.180Z,17344.00
2018-06-19T11:50:45.188Z,19328.00
2018-06-19T11:51:45.190Z,18496.00
2018-06-19T11:52:45.194Z,17280.00
2018-06-19T11:53:45.198Z,16768.00
2018-06-19T11:54:45.199Z,14696.00
2018-06-19T11:55:45.202Z,13388.00
2018-06-19T11:56:45.232Z,12912.00
2018-06-19T11:57:45.216Z,13072.00
2018-06-19T11:58:45.217Z,14808.00
2018-06-19T11:59:45.223Z,16608.00
2018-06-19T12:00:45.226Z,16608.00
2018-06-19T12:01:45.234Z,16016.00
2018-06-19T12:02:45.240Z,15092.00
2018-06-19T12:03:45.244Z,14380.00
2018-06-19T12:04:45.253Z,14304.00
2018-06-19T12:05:45.254Z,14248.00
2018-06-19T12:06:45.267Z,16512.00
2018-06-19T12:07:45.257Z,19040.00
2018-06-19T12:08:45.268Z,20128.00
2018-06-19T12:09:45.267Z,20096.00
2018-06-19T12:10:45.277Z,16512.00
2018-06-19T12:11:45.281Z,14092.00
2018-06-19T12:12:45.281Z,13392.00
2018-06-19T12:13:45.286Z,12916.00
2018-06-19T12:14:45.296Z,12432.00
2018-06-19T12:15:45.301Z,12000.00
2018-06-19T12:16:45.306Z,11304.00
2018-06-19T12:17:45.312Z,10440.00
2018-06-19T12:18:45.311Z,9332.00
2018-06-19T12:19:45.316Z,7892.00
2018-06-19T12:20:45.320Z,7592.00
2018-06-19T12:21:45.325Z,7248.00